sensor_id;sensor_type;location;lat;lon;timestamp;pressure;altitude;pressure_sealevel;temperature;humidity
5679;BME280;2862;52.560;13.566;2022-12-24T00:04:06;99462.84;;;5.12;100.00
5679;BME280;2862;52.560;13.566;2022-12-24T00:14:10;99462.13;;;5.10;100.00
5679;BME280;2862;52.560;13.566;2022-12-24T00:24:13;99458.72;;;5.19;100.00
5679;BME280;2862;52.560;13.566;2022-12-24T00:34:17;99470.88;;;5.21;100.00
5679;BME280;2862;52.560;13.566;2022-12-24T00:44:21;99467.72;;;5.27;100.00
5679;BME280;2862;52.560;13.566;2022-12-24T00:54:25;99471.28;;;5.49;100.00
5679;BME280;2862;52.560;13.566;2022-12-24T01:04:27;99481.19;;;5.47;100.00
5679;BME280;2862;52.560;13.566;2022-12-24T01:14:49;99499.00;;;5.45;100.00
5679;BME280;2862;52.560;13.566;2022-12-24T01:24:52;99499.97;;;5.44;100.00
5679;BME280;2862;52.560;13.566;2022-12-24T01:34:56;99508.19;;;5.41;100.00
5679;BME280;2862;52.560;13.566;2022-12-24T01:45:34;99504.63;;;5.63;100.00
5679;BME280;2862;52.560;13.566;2022-12-24T01:55:43;99511.50;;;5.54;100.00
5679;BME280;2862;52.560;13.566;2022-12-24T02:05:49;99537.53;;;5.60;100.00
5679;BME280;2862;52.560;13.566;2022-12-24T02:16:02;99553.78;;;5.55;100.00
5679;BME280;2862;52.560;13.566;2022-12-24T02:26:19;99553.44;;;5.60;100.00
5679;BME280;2862;52.560;13.566;2022-12-24T02:36:30;99574.66;;;5.49;100.00
5679;BME280;2862;52.560;13.566;2022-12-24T02:46:35;99581.91;;;5.47;100.00
5679;BME280;2862;52.560;13.566;2022-12-24T02:57:04;99598.66;;;5.47;100.00
5679;BME280;2862;52.560;13.566;2022-12-24T03:07:15;99615.53;;;5.46;100.00
5679;BME280;2862;52.560;13.566;2022-12-24T03:17:20;99619.66;;;5.39;100.00
5679;BME280;2862;52.560;13.566;2022-12-24T03:27:24;99632.50;;;5.32;100.00
5679;BME280;2862;52.560;13.566;2022-12-24T03:37:30;99635.06;;;5.34;100.00
5679;BME280;2862;52.560;13.566;2022-12-24T03:47:34;99647.84;;;5.29;100.00
5679;BME280;2862;52.560;13.566;2022-12-24T03:57:38;99654.69;;;5.31;100.00
5679;BME280;2862;52.560;13.566;2022-12-24T04:07:42;99680.69;;;5.26;100.00
5679;BME280;2862;52.560;13.566;2022-12-24T04:17:47;99678.78;;;5.28;100.00
5679;BME280;2862;52.560;13.566;2022-12-24T04:27:50;99676.97;;;5.18;100.00
5679;BME280;2862;52.560;13.566;2022-12-24T04:37:54;99690.56;;;5.13;100.00
5679;BME280;2862;52.560;13.566;2022-12-24T04:47:57;99707.56;;;5.11;100.00
5679;BME280;2862;52.560;13.566;2022-12-24T04:58:02;99718.28;;;5.20;100.00
5679;BME280;2862;52.560;13.566;2022-12-24T05:08:05;99740.81;;;5.26;100.00
5679;BME280;2862;52.560;13.566;2022-12-24T05:18:10;99745.16;;;5.27;100.00
5679;BME280;2862;52.560;13.566;2022-12-24T05:28:14;99749.88;;;5.23;100.00
5679;BME280;2862;52.560;13.566;2022-12-24T05:38:18;99752.38;;;5.25;100.00
5679;BME280;2862;52.560;13.566;2022-12-24T05:48:22;99747.31;;;5.11;100.00
5679;BME280;2862;52.560;13.566;2022-12-24T05:58:26;99772.88;;;5.23;100.00
5679;BME280;2862;52.560;13.566;2022-12-24T06:08:30;99776.59;;;5.20;100.00
5679;BME280;2862;52.560;13.566;2022-12-24T06:18:35;99779.50;;;5.28;100.00
5679;BME280;2862;52.560;13.566;2022-12-24T06:28:39;99796.78;;;5.10;100.00
5679;BME280;2862;52.560;13.566;2022-12-24T06:38:44;99801.75;;;5.15;100.00
5679;BME280;2862;52.560;13.566;2022-12-24T06:48:47;99824.28;;;5.20;100.00
5679;BME280;2862;52.560;13.566;2022-12-24T06:58:52;99839.75;;;5.38;100.00
5679;BME280;2862;52.560;13.566;2022-12-24T07:08:58;99856.88;;;5.33;100.00
5679;BME280;2862;52.560;13.566;2022-12-24T07:19:19;99863.06;;;5.21;100.00
5679;BME280;2862;52.560;13.566;2022-12-24T07:29:42;99883.34;;;5.22;100.00
5679;BME280;2862;52.560;13.566;2022-12-24T07:40:22;99910.44;;;5.26;100.00
5679;BME280;2862;52.560;13.566;2022-12-24T07:50:48;99910.31;;;5.27;100.00
5679;BME280;2862;52.560;13.566;2022-12-24T08:00:56;99929.78;;;5.39;100.00
5679;BME280;2862;52.560;13.566;2022-12-24T08:11:01;99926.81;;;5.55;100.00
5679;BME280;2862;52.560;13.566;2022-12-24T08:21:07;99938.34;;;5.43;100.00
5679;BME280;2862;52.560;13.566;2022-12-24T08:31:10;99940.66;;;5.47;100.00
5679;BME280;2862;52.560;13.566;2022-12-24T08:41:15;99947.16;;;5.90;100.00
5679;BME280;2862;52.560;13.566;2022-12-24T08:51:18;99963.31;;;5.27;100.00
5679;BME280;2862;52.560;13.566;2022-12-24T09:01:22;99964.13;;;5.17;100.00
5679;BME280;2862;52.560;13.566;2022-12-24T09:11:25;99974.72;;;5.17;100.00
5679;BME280;2862;52.560;13.566;2022-12-24T09:21:30;99985.53;;;5.38;100.00
5679;BME280;2862;52.560;13.566;2022-12-24T09:31:32;100010.41;;;5.72;100.00
5679;BME280;2862;52.560;13.566;2022-12-24T09:41:44;100013.00;;;5.60;100.00
5679;BME280;2862;52.560;13.566;2022-12-24T09:51:51;100043.84;;;5.74;100.00
5679;BME280;2862;52.560;13.566;2022-12-24T10:01:59;100058.13;;;6.08;100.00
5679;BME280;2862;52.560;13.566;2022-12-24T10:12:06;100074.09;;;5.96;100.00
5679;BME280;2862;52.560;13.566;2022-12-24T10:22:20;100077.94;;;5.92;100.00
5679;BME280;2862;52.560;13.566;2022-12-24T10:32:27;100091.34;;;6.25;100.00
5679;BME280;2862;52.560;13.566;2022-12-24T10:42:37;100094.16;;;6.46;100.00
5679;BME280;2862;52.560;13.566;2022-12-24T10:52:43;100098.16;;;6.52;100.00
5679;BME280;2862;52.560;13.566;2022-12-24T11:02:49;100124.25;;;6.58;100.00
5679;BME280;2862;52.560;13.566;2022-12-24T11:13:20;100140.56;;;6.64;100.00
5679;BME280;2862;52.560;13.566;2022-12-24T11:23:48;100136.88;;;6.78;100.00
5679;BME280;2862;52.560;13.566;2022-12-24T11:33:52;100128.69;;;7.04;100.00
5679;BME280;2862;52.560;13.566;2022-12-24T11:44:01;100153.56;;;7.03;100.00
5679;BME280;2862;52.560;13.566;2022-12-24T11:54:12;100141.38;;;7.11;100.00
5679;BME280;2862;52.560;13.566;2022-12-24T12:04:20;100160.38;;;7.29;100.00
5679;BME280;2862;52.560;13.566;2022-12-24T12:14:28;100173.06;;;7.37;100.00
5679;BME280;2862;52.560;13.566;2022-12-24T12:24:37;100177.88;;;7.43;100.00
5679;BME280;2862;52.560;13.566;2022-12-24T12:34:46;100182.09;;;7.68;100.00
5679;BME280;2862;52.560;13.566;2022-12-24T12:45:26;100194.44;;;7.69;100.00
5679;BME280;2862;52.560;13.566;2022-12-24T12:55:40;100206.66;;;7.71;100.00
5679;BME280;2862;52.560;13.566;2022-12-24T13:06:02;100202.41;;;7.91;100.00
5679;BME280;2862;52.560;13.566;2022-12-24T13:26:34;100211.59;;;7.87;100.00
5679;BME280;2862;52.560;13.566;2022-12-24T13:37:03;100220.66;;;7.96;100.00
5679;BME280;2862;52.560;13.566;2022-12-24T13:47:18;100242.69;;;8.09;100.00
5679;BME280;2862;52.560;13.566;2022-12-24T13:57:30;100259.38;;;8.11;100.00
5679;BME280;2862;52.560;13.566;2022-12-24T14:07:35;100278.13;;;8.10;100.00
5679;BME280;2862;52.560;13.566;2022-12-24T14:17:39;100284.50;;;8.30;100.00
5679;BME280;2862;52.560;13.566;2022-12-24T14:27:45;100300.75;;;8.27;100.00
5679;BME280;2862;52.560;13.566;2022-12-24T14:37:51;100301.81;;;8.24;100.00
5679;BME280;2862;52.560;13.566;2022-12-24T14:48:02;100307.28;;;8.22;100.00
5679;BME280;2862;52.560;13.566;2022-12-24T14:58:18;100324.13;;;8.12;100.00
5679;BME280;2862;52.560;13.566;2022-12-24T15:08:27;100343.00;;;7.97;100.00
5679;BME280;2862;52.560;13.566;2022-12-24T15:18:33;100343.72;;;7.88;100.00
5679;BME280;2862;52.560;13.566;2022-12-24T15:28:38;100353.25;;;7.68;100.00
5679;BME280;2862;52.560;13.566;2022-12-24T15:38:43;100378.63;;;7.61;100.00
5679;BME280;2862;52.560;13.566;2022-12-24T15:48:49;100382.88;;;7.64;100.00
5679;BME280;2862;52.560;13.566;2022-12-24T15:59:19;100394.81;;;7.47;100.00
5679;BME280;2862;52.560;13.566;2022-12-24T16:09:39;100400.81;;;7.38;100.00
5679;BME280;2862;52.560;13.566;2022-12-24T16:19:46;100429.28;;;7.25;100.00
5679;BME280;2862;52.560;13.566;2022-12-24T16:29:51;100440.31;;;7.31;100.00
5679;BME280;2862;52.560;13.566;2022-12-24T16:39:54;100439.69;;;7.28;100.00
5679;BME280;2862;52.560;13.566;2022-12-24T16:49:59;100442.47;;;7.26;100.00
5679;BME280;2862;52.560;13.566;2022-12-24T17:00:03;100444.84;;;7.18;100.00
5679;BME280;2862;52.560;13.566;2022-12-24T17:10:10;100473.06;;;7.08;100.00
5679;BME280;2862;52.560;13.566;2022-12-24T17:20:13;100473.38;;;7.03;100.00
5679;BME280;2862;52.560;13.566;2022-12-24T17:30:20;100495.38;;;7.05;100.00
5679;BME280;2862;52.560;13.566;2022-12-24T17:40:23;100493.81;;;7.03;100.00
5679;BME280;2862;52.560;13.566;2022-12-24T17:50:27;100505.63;;;6.99;100.00
5679;BME280;2862;52.560;13.566;2022-12-24T18:00:30;100525.59;;;7.04;100.00
5679;BME280;2862;52.560;13.566;2022-12-24T18:10:35;100529.94;;;7.18;100.00
5679;BME280;2862;52.560;13.566;2022-12-24T18:20:38;100536.25;;;7.28;100.00
5679;BME280;2862;52.560;13.566;2022-12-24T18:30:56;100551.19;;;7.18;100.00
5679;BME280;2862;52.560;13.566;2022-12-24T18:41:01;100556.97;;;7.12;100.00
5679;BME280;2862;52.560;13.566;2022-12-24T18:51:06;100563.09;;;7.25;100.00
5679;BME280;2862;52.560;13.566;2022-12-24T19:01:11;100567.53;;;7.37;100.00
5679;BME280;2862;52.560;13.566;2022-12-24T19:11:17;100588.69;;;7.39;100.00
5679;BME280;2862;52.560;13.566;2022-12-24T19:21:43;100578.41;;;7.34;100.00
5679;BME280;2862;52.560;13.566;2022-12-24T19:31:48;100594.06;;;7.63;100.00
5679;BME280;2862;52.560;13.566;2022-12-24T19:41:54;100599.88;;;7.68;100.00
5679;BME280;2862;52.560;13.566;2022-12-24T19:52:01;100606.47;;;7.62;100.00
5679;BME280;2862;52.560;13.566;2022-12-24T20:02:07;100609.56;;;7.69;100.00
5679;BME280;2862;52.560;13.566;2022-12-24T20:12:13;100607.25;;;7.64;100.00
5679;BME280;2862;52.560;13.566;2022-12-24T20:22:19;100615.03;;;7.55;100.00
5679;BME280;2862;52.560;13.566;2022-12-24T20:32:30;100625.84;;;7.40;100.00
5679;BME280;2862;52.560;13.566;2022-12-24T20:42:59;100626.44;;;7.44;100.00
5679;BME280;2862;52.560;13.566;2022-12-24T20:53:19;100638.78;;;7.45;100.00
5679;BME280;2862;52.560;13.566;2022-12-24T21:03:29;100650.47;;;7.55;100.00
5679;BME280;2862;52.560;13.566;2022-12-24T21:13:50;100660.06;;;7.58;100.00
5679;BME280;2862;52.560;13.566;2022-12-24T21:23:52;100667.34;;;7.67;100.00
5679;BME280;2862;52.560;13.566;2022-12-24T21:33:57;100680.97;;;7.75;100.00
5679;BME280;2862;52.560;13.566;2022-12-24T21:44:00;100684.09;;;7.69;100.00
5679;BME280;2862;52.560;13.566;2022-12-24T21:54:05;100688.88;;;7.64;100.00
5679;BME280;2862;52.560;13.566;2022-12-24T22:04:32;100709.72;;;7.70;100.00
5679;BME280;2862;52.560;13.566;2022-12-24T22:14:37;100724.94;;;7.68;100.00
5679;BME280;2862;52.560;13.566;2022-12-24T22:24:40;100730.06;;;7.71;100.00
5679;BME280;2862;52.560;13.566;2022-12-24T22:34:46;100741.22;;;7.76;100.00
5679;BME280;2862;52.560;13.566;2022-12-24T22:44:50;100748.53;;;7.85;100.00
5679;BME280;2862;52.560;13.566;2022-12-24T22:54:55;100758.16;;;7.75;100.00
5679;BME280;2862;52.560;13.566;2022-12-24T23:04:58;100773.81;;;7.67;100.00
5679;BME280;2862;52.560;13.566;2022-12-24T23:15:02;100791.16;;;7.60;100.00
5679;BME280;2862;52.560;13.566;2022-12-24T23:25:06;100796.81;;;7.55;100.00
5679;BME280;2862;52.560;13.566;2022-12-24T23:35:11;100787.78;;;7.58;100.00
5679;BME280;2862;52.560;13.566;2022-12-24T23:45:14;100784.25;;;7.44;100.00
5679;BME280;2862;52.560;13.566;2022-12-24T23:55:18;100785.19;;;7.18;100.00
